Aérodrome :
LOGIN :

S'inscrire | Disclaimer

   EN    FR    IT 

 










Légende :    VFR   VFR Marginal   IFR   IFR Intensif   IFR Très Intensif
Visi : 
Plafond : 
>= 8 km
>= 3000ft
5 à 8 km
1000 à 3000 ft
1500m à 5 km
500 à 1000 ft
800 à 1500m
200 à 500 ft
< 800m
< 200 ft
Symboles :   Orages  Brouillard  Fortes neiges  Fortes précipitations  Vent > 20 kt
SIGMETs :   Divers  Orages  Givrage  Turbulence  Onde Orograph.  Cendres Volcan.






- Altitude de l'aérodrome : 364 ft


LFAQ - Albert Bray

DERNIER METAR :
  • 291230Z AUTO 18011KT 9999 -RA OVC005/// ///TCU 09/08 Q1007 TEMPO 1600 RADZ OVC004

METARs EXPIRÉS :
  • 291200Z AUTO 17012KT 9999 OVC004 09/08 Q1008 TEMPO 1600 RADZ
  • 291130Z AUTO 17012KT 7000 OVC004 09/08 Q1008 TEMPO 1800 RADZ
  • 291100Z AUTO 18013KT 9000 -DZ OVC004 08/08 Q1008 TEMPO 1800 RADZ
  • 291030Z AUTO 17012KT 6000 +DZ OVC004 08/08 Q1009 TEMPO 1800 RADZ
  • 291000Z AUTO 18011KT 2400 -DZ BR OVC002/// ///TCU 08/08 Q1009 TEMPO RADZ OVC004
  • 290930Z AUTO 18010KT 1700 -DZ BR OVC003 08/08 Q1010 TEMPO 3000 RADZ
  • 290900Z AUTO 18010KT 4700 BR OVC003 08/08 Q1010 TEMPO RADZ
  • 290830Z AUTO 18011KT 4900 BR OVC004 08/08 Q1010 TEMPO 2000 RADZ
  • 290800Z AUTO 18010KT 4500 BR OVC004 08/08 Q1010 TEMPO 2000 RADZ

TAF TAF LFAQ
Valide du 29 à 12h jusqu'au 29 à 21h UTC


291100Z 2912/2921 17012KT 8000 OVC012
TEMPO 2912/2921 4000 RADZ OVC006
PROB40
TEMPO 2912/2921 1600 RADZ OVC004



MET'MAP, la Météo Aéronautique d'un coup d'oeil ! - Copyright ORBIFLY Décembre 2007 - Disclaimer

ORBIFLY MET'MAP TEAM :

Programmation & Développement : Alexandra Zaïnal
Sur une idée originale de : Baudouin d'Aumeries
Soutien technique & logistique : Manuel Goepfert
Assistance : Marc-Olivier Méhu




SOURCES & CREDITS :

   NOAA